createdAt,value
2018-03-27T00:02:16.052Z,26.83
2018-03-27T00:04:43.589Z,25.92
2018-03-27T00:07:11.887Z,25.75
2018-03-27T00:09:39.439Z,25.23
2018-03-27T00:12:06.994Z,23.10
2018-03-27T00:14:34.543Z,24.75
2018-03-27T00:17:02.862Z,22.75
2018-03-27T00:19:30.425Z,23.50
2018-03-27T00:21:57.961Z,22.05
2018-03-27T00:24:25.521Z,21.27
2018-03-27T00:27:00.544Z,21.50
2018-03-27T00:29:39.848Z,22.60
2018-03-27T00:32:19.188Z,22.90
2018-03-27T00:34:58.514Z,23.27
2018-03-27T00:37:38.003Z,22.30
2018-03-27T00:40:17.290Z,21.10
2018-03-27T00:42:54.618Z,22.58
2018-03-27T00:45:22.166Z,23.70
2018-03-27T00:47:50.488Z,25.67
2018-03-27T00:50:18.047Z,24.77
2018-03-27T00:52:45.621Z,25.23
2018-03-27T00:55:13.174Z,23.98
2018-03-27T00:57:40.737Z,23.23
2018-03-27T01:00:08.276Z,23.20
2018-03-27T01:02:35.825Z,24.10
2018-03-27T01:05:09.132Z,22.70
2018-03-27T01:07:36.702Z,25.10
2018-03-27T01:10:04.229Z,22.95
2018-03-27T01:12:31.788Z,23.40
2018-03-27T01:14:59.352Z,22.35
2018-03-27T01:17:26.913Z,21.17
2018-03-27T01:19:54.459Z,25.58
2018-03-27T01:22:21.990Z,22.48
2018-03-27T01:24:50.316Z,21.87
2018-03-27T01:27:17.859Z,24.85
2018-03-27T01:29:45.437Z,23.40
2018-03-27T01:32:13.001Z,23.50
2018-03-27T01:34:40.553Z,22.67
2018-03-27T01:37:08.105Z,25.70
2018-03-27T01:39:35.661Z,24.60
2018-03-27T01:42:03.223Z,23.08
2018-03-27T01:44:30.760Z,22.02
2018-03-27T01:46:59.085Z,22.70
2018-03-27T01:49:27.428Z,25.20
2018-03-27T01:51:54.981Z,23.10
2018-03-27T01:54:22.542Z,22.48
2018-03-27T01:56:50.093Z,21.60
2018-03-27T01:59:18.417Z,21.42
2018-03-27T02:01:45.972Z,22.48
2018-03-27T02:04:13.526Z,24.50
2018-03-27T02:06:41.087Z,21.40
2018-03-27T02:09:08.687Z,22.00
2018-03-27T02:11:41.833Z,22.77
2018-03-27T02:14:14.970Z,23.52
2018-03-27T02:16:48.232Z,19.67
2018-03-27T02:19:21.573Z,22.40
2018-03-27T02:21:49.433Z,21.87
2018-03-27T02:24:18.354Z,23.55
2018-03-27T02:26:45.905Z,23.95
2018-03-27T02:29:13.470Z,24.52
2018-03-27T02:31:41.018Z,23.83
2018-03-27T02:34:08.586Z,21.52
2018-03-27T02:36:36.151Z,21.67
2018-03-27T02:39:03.702Z,24.00
2018-03-27T02:41:31.265Z,23.40
2018-03-27T02:43:58.828Z,24.20
2018-03-27T02:46:26.384Z,25.08
2018-03-27T02:48:53.941Z,22.87
2018-03-27T02:51:21.509Z,22.50
2018-03-27T02:53:49.045Z,23.50
2018-03-27T02:56:17.408Z,23.30
2018-03-27T02:58:45.729Z,21.83
2018-03-27T03:01:13.257Z,22.52
2018-03-27T03:03:41.566Z,27.35
2018-03-27T03:06:09.107Z,25.25
2018-03-27T03:08:36.666Z,26.15
2018-03-27T03:11:04.213Z,23.50
2018-03-27T03:13:32.539Z,24.30
2018-03-27T03:16:00.080Z,25.70
2018-03-27T03:18:27.667Z,24.70
2018-03-27T03:20:55.233Z,23.48
2018-03-27T03:23:22.794Z,23.45
2018-03-27T03:25:50.340Z,23.92
2018-03-27T03:28:17.923Z,24.35
2018-03-27T03:30:46.245Z,23.85
2018-03-27T03:33:13.775Z,22.87
2018-03-27T03:35:42.101Z,22.73
2018-03-27T03:38:09.635Z,23.48
2018-03-27T03:40:37.214Z,23.98
2018-03-27T03:43:04.780Z,24.08
2018-03-27T03:45:32.313Z,22.65
2018-03-27T03:47:59.872Z,23.92
2018-03-27T03:50:27.396Z,23.02
2018-03-27T03:52:54.959Z,22.83
2018-03-27T03:55:23.275Z,22.70
2018-03-27T03:57:50.844Z,24.70
2018-03-27T04:00:18.372Z,23.15
2018-03-27T04:02:45.936Z,24.63
2018-03-27T04:05:14.255Z,24.48
2018-03-27T04:07:41.799Z,27.05
2018-03-27T04:10:09.365Z,26.30
2018-03-27T04:12:36.917Z,25.98
2018-03-27T04:15:04.472Z,24.67
2018-03-27T04:17:31.994Z,24.33
2018-03-27T04:20:00.318Z,24.10
2018-03-27T04:22:27.858Z,24.02
2018-03-27T04:24:55.411Z,24.52
2018-03-27T04:27:22.972Z,25.92
2018-03-27T04:29:50.509Z,27.33
2018-03-27T04:32:18.834Z,26.55
2018-03-27T04:34:46.388Z,25.62
2018-03-27T04:37:13.937Z,25.60
2018-03-27T04:39:41.497Z,25.15
2018-03-27T04:42:09.062Z,22.98
2018-03-27T04:44:36.649Z,23.15
2018-03-27T04:47:04.209Z,24.90
2018-03-27T04:49:31.755Z,24.08
2018-03-27T04:51:59.320Z,24.87
2018-03-27T04:54:26.874Z,24.27
2018-03-27T04:56:54.441Z,24.10
2018-03-27T04:59:22.000Z,25.02
2018-03-27T05:01:49.555Z,23.90
2018-03-27T05:04:17.101Z,24.83
2018-03-27T05:06:44.635Z,28.35
2018-03-27T05:09:12.181Z,25.62
2018-03-27T05:11:40.507Z,25.88
2018-03-27T05:14:08.055Z,24.83
2018-03-27T05:16:35.634Z,26.10
2018-03-27T05:19:03.158Z,27.15
2018-03-27T05:21:30.745Z,27.52
2018-03-27T05:23:59.047Z,27.23
2018-03-27T05:26:26.624Z,35.03
2018-03-27T05:28:54.200Z,33.72
2018-03-27T05:31:21.773Z,33.03
2018-03-27T05:33:49.331Z,31.35
2018-03-27T05:36:16.896Z,31.70
2018-03-27T05:38:44.472Z,36.08
2018-03-27T05:41:12.004Z,35.13
2018-03-27T05:43:39.564Z,38.65
2018-03-27T05:46:07.142Z,38.30
2018-03-27T05:48:34.684Z,37.45
2018-03-27T05:51:02.233Z,37.63
2018-03-27T05:53:30.565Z,35.13
2018-03-27T05:55:58.392Z,35.40
2018-03-27T05:58:25.887Z,37.50
2018-03-27T06:00:53.462Z,38.58
2018-03-27T06:03:21.017Z,41.97
2018-03-27T06:05:48.575Z,46.90
2018-03-27T06:08:16.102Z,48.22
2018-03-27T06:10:43.674Z,44.67
2018-03-27T06:13:11.207Z,44.50
2018-03-27T06:15:38.767Z,45.15
2018-03-27T06:18:06.325Z,43.75
2018-03-27T06:20:33.923Z,43.85
2018-03-27T06:23:01.463Z,44.10
2018-03-27T06:25:28.985Z,40.38
2018-03-27T06:27:57.292Z,39.95
2018-03-27T06:30:24.849Z,43.70
2018-03-27T06:32:52.426Z,53.35
2018-03-27T06:35:19.958Z,53.53
2018-03-27T06:37:47.510Z,54.97
2018-03-27T06:40:15.065Z,56.08
2018-03-27T06:42:42.592Z,65.70
2018-03-27T06:45:10.154Z,62.15
2018-03-27T06:47:38.475Z,61.03
2018-03-27T06:50:06.044Z,63.00
2018-03-27T06:52:33.605Z,62.15
2018-03-27T06:55:01.151Z,63.58
2018-03-27T06:57:28.708Z,66.37
2018-03-27T06:59:57.062Z,62.60
2018-03-27T07:02:25.381Z,58.97
2018-03-27T07:04:52.992Z,61.15
2018-03-27T07:07:20.523Z,65.97
2018-03-27T07:09:48.062Z,58.90
2018-03-27T07:12:15.628Z,65.65
2018-03-27T07:14:43.180Z,64.65
2018-03-27T07:17:10.770Z,64.90
2018-03-27T07:19:39.109Z,59.30
2018-03-27T07:22:06.653Z,61.42
2018-03-27T07:24:34.197Z,64.87
2018-03-27T07:27:01.820Z,60.00
2018-03-27T07:29:29.406Z,61.78
2018-03-27T07:31:57.727Z,60.63
2018-03-27T07:34:25.325Z,60.83
2018-03-27T07:36:52.882Z,60.50
2018-03-27T07:39:20.447Z,59.10
2018-03-27T07:41:48.034Z,60.10
2018-03-27T07:44:15.597Z,61.72
2018-03-27T07:46:43.168Z,59.20
2018-03-27T07:49:10.728Z,62.88
2018-03-27T07:51:38.276Z,59.47
2018-03-27T07:54:05.852Z,60.58
2018-03-27T07:56:34.186Z,55.17
2018-03-27T07:59:02.513Z,54.63
2018-03-27T08:01:30.080Z,56.08
2018-03-27T08:03:57.638Z,53.60
2018-03-27T08:06:25.216Z,50.97
2018-03-27T08:08:52.762Z,53.33
2018-03-27T08:11:20.314Z,90.83
2018-03-27T08:13:47.868Z,54.40
2018-03-27T08:16:15.453Z,56.13
2018-03-27T08:18:42.996Z,48.83
2018-03-27T08:21:10.542Z,51.20
2018-03-27T08:23:38.106Z,47.50
2018-03-27T08:26:05.649Z,50.10
2018-03-27T08:28:33.229Z,51.60
2018-03-27T08:31:00.766Z,49.70
2018-03-27T08:33:28.322Z,48.63
2018-03-27T08:35:55.910Z,51.70
2018-03-27T08:38:23.467Z,51.20
2018-03-27T08:40:51.011Z,50.97
2018-03-27T08:43:18.599Z,51.17
2018-03-27T08:45:46.148Z,52.07
2018-03-27T08:48:13.699Z,49.07
2018-03-27T08:50:41.268Z,50.83
2018-03-27T08:53:08.861Z,48.93
2018-03-27T08:55:36.389Z,48.00
2018-03-27T08:58:03.949Z,46.03
2018-03-27T09:00:31.524Z,45.80
2018-03-27T09:02:59.095Z,43.97
2018-03-27T09:05:26.650Z,46.80
2018-03-27T09:07:54.383Z,46.97
2018-03-27T09:10:21.930Z,45.67
2018-03-27T09:12:49.512Z,46.10
2018-03-27T09:15:17.093Z,44.88
2018-03-27T09:17:44.655Z,42.97
2018-03-27T09:20:12.216Z,47.93
2018-03-27T09:22:39.775Z,41.17
2018-03-27T09:25:07.326Z,43.37
2018-03-27T09:27:34.903Z,38.23
2018-03-27T09:30:02.470Z,37.37
2018-03-27T09:32:30.037Z,38.10
2018-03-27T09:34:58.373Z,36.07
2018-03-27T09:37:25.941Z,31.23
2018-03-27T09:39:53.480Z,26.30
2018-03-27T09:42:21.787Z,24.30
2018-03-27T09:44:49.355Z,22.73
2018-03-27T09:47:16.889Z,22.20
2018-03-27T09:49:44.438Z,33.40
2018-03-27T09:52:11.981Z,35.90
2018-03-27T09:54:39.514Z,24.73
2018-03-27T09:57:07.837Z,23.33
2018-03-27T09:59:35.385Z,25.70
2018-03-27T10:02:02.929Z,27.20
2018-03-27T10:04:30.509Z,25.77
2018-03-27T10:06:58.051Z,27.70
2018-03-27T10:09:25.593Z,28.13
2018-03-27T10:11:53.930Z,28.00
2018-03-27T10:14:21.488Z,27.80
2018-03-27T10:16:49.268Z,23.80
2018-03-27T10:19:16.837Z,22.00
2018-03-27T10:21:44.453Z,22.23
2018-03-27T10:24:12.003Z,23.40
2018-03-27T10:26:39.559Z,19.43
2018-03-27T10:29:07.127Z,19.47
2018-03-27T10:31:34.686Z,18.47
2018-03-27T10:34:02.267Z,20.23
2018-03-27T10:36:29.844Z,20.17
2018-03-27T10:38:57.389Z,23.07
2018-03-27T10:41:24.959Z,26.30
2018-03-27T10:43:52.520Z,23.00
2018-03-27T10:46:20.079Z,22.83
2018-03-27T10:48:47.666Z,21.13
2018-03-27T10:51:15.974Z,20.77
2018-03-27T10:53:44.301Z,22.60
2018-03-27T10:56:11.879Z,21.37
2018-03-27T10:58:40.207Z,21.40
2018-03-27T11:01:07.760Z,20.13
2018-03-27T11:03:35.329Z,21.70
2018-03-27T11:06:02.861Z,20.17
2018-03-27T11:08:30.414Z,19.50
2018-03-27T11:10:57.993Z,19.83
2018-03-27T11:13:25.571Z,19.30
2018-03-27T11:15:53.153Z,20.97
2018-03-27T11:18:20.707Z,19.90
2018-03-27T11:20:48.251Z,21.53
2018-03-27T11:23:15.817Z,19.13
2018-03-27T11:25:43.349Z,16.70
2018-03-27T11:28:10.940Z,20.30
2018-03-27T11:30:38.480Z,18.40
2018-03-27T11:33:06.027Z,16.50
2018-03-27T11:35:33.568Z,22.30
2018-03-27T11:38:01.108Z,20.20
2018-03-27T11:40:29.432Z,20.43
2018-03-27T11:42:56.986Z,22.60
2018-03-27T11:45:24.537Z,20.67
2018-03-27T11:47:52.080Z,21.97
2018-03-27T11:50:19.624Z,20.67
2018-03-27T11:52:47.952Z,18.10
2018-03-27T11:55:15.483Z,17.60
2018-03-27T11:57:43.024Z,20.33
2018-03-27T12:00:10.606Z,17.77
2018-03-27T12:02:38.152Z,17.20
2018-03-27T12:05:05.691Z,18.23
2018-03-27T12:07:34.018Z,18.30
2018-03-27T12:10:01.569Z,18.80
2018-03-27T12:12:29.125Z,20.83
2018-03-27T12:14:56.697Z,20.30
2018-03-27T12:17:24.266Z,19.03
2018-03-27T12:19:51.805Z,17.80
2018-03-27T12:22:19.366Z,17.67
2018-03-27T12:24:46.935Z,20.90
2018-03-27T12:27:14.461Z,19.03
2018-03-27T12:29:42.044Z,16.10
2018-03-27T12:32:09.592Z,19.27
2018-03-27T12:34:37.138Z,17.97
2018-03-27T12:37:04.710Z,16.00
2018-03-27T12:39:32.256Z,18.33
2018-03-27T12:41:59.803Z,19.17
2018-03-27T12:44:28.145Z,22.10
2018-03-27T12:46:55.696Z,23.57
2018-03-27T12:49:23.247Z,20.10
2018-03-27T12:51:50.825Z,19.03
2018-03-27T12:54:18.390Z,23.60
2018-03-27T12:56:45.921Z,19.77
2018-03-27T12:59:13.478Z,23.90
2018-03-27T13:01:41.006Z,22.10
2018-03-27T13:04:08.566Z,15.17
2018-03-27T13:06:36.162Z,13.90
2018-03-27T13:09:03.745Z,13.73
2018-03-27T13:11:31.277Z,12.53
2018-03-27T13:13:58.842Z,13.03
2018-03-27T13:16:26.413Z,15.30
2018-03-27T13:18:53.955Z,19.10
2018-03-27T13:21:21.543Z,16.00
2018-03-27T13:23:49.092Z,15.10
2018-03-27T13:26:16.673Z,14.97
2018-03-27T13:28:45.016Z,12.13
2018-03-27T13:31:12.568Z,11.90
2018-03-27T13:33:40.888Z,13.07
2018-03-27T13:36:09.233Z,14.87
2018-03-27T13:38:36.785Z,15.30
2018-03-27T13:41:04.332Z,13.53
2018-03-27T13:43:31.904Z,14.30
2018-03-27T13:45:59.465Z,14.80
2018-03-27T13:48:27.011Z,15.47
2018-03-27T13:50:54.590Z,13.40
2018-03-27T13:53:22.122Z,12.97
2018-03-27T13:55:49.663Z,13.80
2018-03-27T13:58:17.235Z,13.10
2018-03-27T14:00:44.790Z,14.20
2018-03-27T14:03:12.345Z,12.20
2018-03-27T14:05:39.932Z,12.60
2018-03-27T14:08:07.486Z,13.80
2018-03-27T14:10:35.028Z,13.30
2018-03-27T14:13:02.872Z,15.10
2018-03-27T14:15:30.409Z,13.70
2018-03-27T14:17:57.993Z,14.13
2018-03-27T14:20:26.323Z,15.15
2018-03-27T14:22:53.876Z,14.90
2018-03-27T14:25:21.414Z,13.63
2018-03-27T14:27:48.984Z,13.23
2018-03-27T14:30:16.542Z,14.83
2018-03-27T14:32:44.088Z,14.70
2018-03-27T14:35:11.648Z,15.13
2018-03-27T14:37:39.208Z,15.70
2018-03-27T14:40:07.610Z,13.57
2018-03-27T14:42:35.175Z,15.53
2018-03-27T14:45:02.741Z,13.77
2018-03-27T14:47:30.319Z,13.20
2018-03-27T14:49:57.881Z,14.70
2018-03-27T14:52:25.442Z,14.67
2018-03-27T14:54:53.768Z,13.80
2018-03-27T14:57:21.349Z,14.63
2018-03-27T14:59:50.689Z,13.40
2018-03-27T15:02:18.342Z,14.60
2018-03-27T15:04:46.731Z,12.90
2018-03-27T15:07:14.303Z,13.37
2018-03-27T15:09:42.600Z,13.40
2018-03-27T15:12:10.174Z,12.20
2018-03-27T15:14:37.710Z,13.60
2018-03-27T15:17:05.245Z,13.23
2018-03-27T15:19:33.584Z,14.27
2018-03-27T15:22:01.159Z,14.80
2018-03-27T15:24:28.731Z,12.97
2018-03-27T15:26:57.077Z,14.13
2018-03-27T15:29:24.627Z,13.10
2018-03-27T15:31:52.182Z,15.07
2018-03-27T15:34:19.761Z,14.17
2018-03-27T15:36:47.292Z,14.68
2018-03-27T15:39:14.866Z,16.07
2018-03-27T15:41:42.448Z,15.20
2018-03-27T15:44:09.997Z,21.23
2018-03-27T15:46:37.540Z,16.00
2018-03-27T15:49:05.101Z,38.10
2018-03-27T15:51:32.639Z,17.33
2018-03-27T15:54:00.181Z,22.27
2018-03-27T15:56:28.524Z,38.50
2018-03-27T15:58:56.053Z,18.43
2018-03-27T16:01:23.595Z,17.70
2018-03-27T16:03:51.169Z,17.40
2018-03-27T16:06:18.747Z,16.30
2018-03-27T16:08:46.292Z,17.53
2018-03-27T16:11:13.864Z,18.10
2018-03-27T16:13:42.184Z,19.63
2018-03-27T16:16:10.502Z,18.23
2018-03-27T16:18:38.821Z,18.60
2018-03-27T16:21:06.353Z,18.83
2018-03-27T16:23:33.910Z,20.30
2018-03-27T16:26:01.526Z,20.77
2018-03-27T16:28:29.813Z,20.93
2018-03-27T16:30:57.357Z,20.47
2018-03-27T16:33:25.693Z,21.37
2018-03-27T16:35:53.232Z,21.77
2018-03-27T16:38:20.790Z,19.33
2018-03-27T16:40:48.347Z,20.37
2018-03-27T16:43:15.892Z,19.90
2018-03-27T16:45:43.430Z,21.67
2018-03-27T16:48:11.765Z,18.03
2018-03-27T16:50:39.319Z,20.87
2018-03-27T16:53:06.851Z,22.77
2018-03-27T16:55:35.183Z,21.47
2018-03-27T16:58:02.736Z,20.07
2018-03-27T17:00:30.266Z,21.03
2018-03-27T17:02:57.842Z,20.73
2018-03-27T17:05:25.427Z,20.97
2018-03-27T17:07:52.977Z,22.57
2018-03-27T17:10:20.587Z,23.13
2018-03-27T17:12:48.113Z,22.23
2018-03-27T17:15:16.446Z,22.70
2018-03-27T17:17:44.011Z,22.47
2018-03-27T17:20:11.576Z,23.77
2018-03-27T17:22:39.163Z,23.47
2018-03-27T17:25:06.711Z,25.03
2018-03-27T17:27:34.243Z,25.80
2018-03-27T17:30:01.801Z,26.57
2018-03-27T17:32:29.368Z,26.40
2018-03-27T17:34:56.903Z,26.20
2018-03-27T17:37:24.439Z,25.67
2018-03-27T17:39:52.016Z,26.35
2018-03-27T17:42:19.568Z,27.67
2018-03-27T17:44:47.124Z,27.23
2018-03-27T17:47:14.693Z,29.73
2018-03-27T17:49:42.231Z,27.33
2018-03-27T17:52:10.531Z,27.93
2018-03-27T17:54:38.091Z,31.37
2018-03-27T17:57:05.648Z,28.17
2018-03-27T17:59:33.204Z,28.62
2018-03-27T18:02:00.786Z,30.80
2018-03-27T18:04:28.317Z,32.43
2018-03-27T18:06:55.853Z,32.97
2018-03-27T18:09:24.171Z,31.80
2018-03-27T18:11:51.806Z,29.77
2018-03-27T18:14:19.382Z,30.70
2018-03-27T18:16:46.960Z,32.45
2018-03-27T18:19:14.497Z,30.57
2018-03-27T18:21:42.044Z,30.03
2018-03-27T18:24:09.621Z,32.53
2018-03-27T18:26:37.179Z,34.40
2018-03-27T18:29:04.734Z,31.90
2018-03-27T18:31:32.299Z,31.37
2018-03-27T18:33:59.821Z,31.63
2018-03-27T18:36:28.143Z,31.58
2018-03-27T18:38:55.720Z,32.17
2018-03-27T18:41:23.258Z,33.03
2018-03-27T18:43:50.786Z,32.63
2018-03-27T18:46:19.119Z,29.90
2018-03-27T18:48:46.671Z,30.70
2018-03-27T18:51:14.222Z,29.50
2018-03-27T18:53:41.822Z,31.73
2018-03-27T18:56:10.137Z,30.20
2018-03-27T18:58:37.702Z,30.10
2018-03-27T19:01:05.268Z,29.27
2018-03-27T19:03:32.826Z,29.50
2018-03-27T19:06:00.394Z,30.33
2018-03-27T19:08:28.036Z,31.62
2018-03-27T19:10:55.601Z,28.53
2018-03-27T19:13:23.168Z,30.97
2018-03-27T19:15:50.739Z,28.90
2018-03-27T19:18:18.300Z,29.73
2018-03-27T19:20:45.843Z,29.40
2018-03-27T19:23:13.446Z,29.00
2018-03-27T19:25:40.971Z,33.42
2018-03-27T19:28:08.510Z,37.80
2018-03-27T19:30:36.091Z,31.20
2018-03-27T19:33:04.071Z,30.50
2018-03-27T19:35:31.619Z,31.62
2018-03-27T19:37:59.188Z,29.23
2018-03-27T19:40:26.709Z,31.57
2018-03-27T19:42:54.260Z,27.57
2018-03-27T19:45:21.836Z,27.67
2018-03-27T19:47:49.381Z,25.20
2018-03-27T19:50:16.924Z,25.50
2018-03-27T19:52:45.261Z,22.80
2018-03-27T19:55:12.791Z,20.37
2018-03-27T19:57:40.345Z,19.43
2018-03-27T20:00:08.724Z,19.67
2018-03-27T20:02:36.264Z,19.65
2018-03-27T20:05:04.568Z,19.35
2018-03-27T20:07:32.126Z,18.87
2018-03-27T20:09:59.695Z,19.30
2018-03-27T20:12:27.234Z,18.77
2018-03-27T20:14:54.821Z,19.90
2018-03-27T20:17:22.365Z,17.60
2018-03-27T20:19:49.894Z,18.27
2018-03-27T20:22:18.232Z,17.45
2018-03-27T20:24:45.799Z,17.23
2018-03-27T20:27:13.347Z,18.67
2018-03-27T20:29:40.905Z,15.77
2018-03-27T20:32:08.449Z,15.90
2018-03-27T20:34:36.009Z,16.95
2018-03-27T20:37:03.598Z,19.27
2018-03-27T20:39:31.163Z,17.33
2018-03-27T20:41:58.707Z,17.77
2018-03-27T20:44:26.268Z,16.40
2018-03-27T20:46:53.816Z,22.67
2018-03-27T20:49:21.345Z,21.50
2018-03-27T20:51:48.905Z,23.90
2018-03-27T20:54:16.479Z,26.17
2018-03-27T20:56:44.039Z,26.03
2018-03-27T20:59:11.608Z,24.48
2018-03-27T21:01:39.161Z,24.70
2018-03-27T21:04:07.453Z,24.10
2018-03-27T21:06:35.029Z,26.30
2018-03-27T21:09:02.596Z,24.67
2018-03-27T21:11:30.897Z,24.07
2018-03-27T21:13:59.228Z,25.07
2018-03-27T21:16:27.532Z,24.23
2018-03-27T21:18:55.869Z,23.50
2018-03-27T21:21:23.456Z,25.63
2018-03-27T21:23:51.010Z,16.83
2018-03-27T21:26:18.562Z,16.73
2018-03-27T21:28:46.130Z,13.77
2018-03-27T21:31:13.671Z,13.17
2018-03-27T21:33:41.232Z,12.52
2018-03-27T21:36:08.913Z,13.07
2018-03-27T21:38:36.470Z,11.47
2018-03-27T21:41:04.020Z,12.07
2018-03-27T21:43:31.590Z,10.13
2018-03-27T21:45:59.140Z,10.73
2018-03-27T21:48:26.776Z,12.87
2018-03-27T21:50:54.330Z,10.60
2018-03-27T21:53:21.928Z,10.37
2018-03-27T21:55:49.492Z,9.13
2018-03-27T21:58:17.107Z,10.20
2018-03-27T22:00:44.668Z,11.18
2018-03-27T22:03:12.201Z,9.07
2018-03-27T22:05:39.795Z,8.77
2018-03-27T22:08:07.329Z,9.50
2018-03-27T22:10:34.889Z,8.40
2018-03-27T22:13:02.456Z,9.25
2018-03-27T22:15:30.037Z,9.55
2018-03-27T22:17:57.597Z,8.40
2018-03-27T22:20:25.167Z,7.82
2018-03-27T22:22:52.727Z,8.23
2018-03-27T22:25:21.771Z,8.80
2018-03-27T22:27:49.326Z,8.00
2018-03-27T22:30:17.645Z,8.87
2018-03-27T22:32:45.188Z,9.98
2018-03-27T22:35:12.762Z,11.37
2018-03-27T22:37:40.318Z,9.27
2018-03-27T22:40:07.869Z,9.02
2018-03-27T22:42:35.442Z,11.10
2018-03-27T22:45:02.987Z,9.15
2018-03-27T22:47:30.575Z,9.32
2018-03-27T22:49:58.145Z,8.60
2018-03-27T22:52:25.704Z,8.20
2018-03-27T22:54:53.239Z,8.18
2018-03-27T22:57:20.813Z,9.20
2018-03-27T22:59:48.381Z,8.37
2018-03-27T23:02:15.927Z,7.57
2018-03-27T23:04:43.499Z,7.93
2018-03-27T23:07:11.067Z,8.18
2018-03-27T23:09:38.616Z,7.93
2018-03-27T23:12:06.166Z,8.52
2018-03-27T23:14:33.699Z,8.00
2018-03-27T23:17:01.233Z,8.60
2018-03-27T23:19:28.828Z,8.13
2018-03-27T23:21:56.387Z,8.00
2018-03-27T23:24:23.925Z,8.40
2018-03-27T23:26:51.505Z,7.97
2018-03-27T23:29:19.057Z,8.38
2018-03-27T23:31:46.594Z,9.00
2018-03-27T23:34:14.177Z,7.90
2018-03-27T23:36:41.724Z,7.75
2018-03-27T23:39:09.319Z,7.37
2018-03-27T23:41:36.875Z,7.50
2018-03-27T23:44:04.434Z,7.53
2018-03-27T23:46:31.992Z,7.70
2018-03-27T23:48:59.551Z,7.30
2018-03-27T23:51:27.114Z,8.40
2018-03-27T23:53:54.660Z,7.62
2018-03-27T23:56:22.206Z,7.40
2018-03-27T23:58:49.740Z,7.67
